createdAt,value
2023-04-02T00:00:32.404Z,24.20
2023-04-02T00:05:32.899Z,24.41
2023-04-02T00:10:31.924Z,25.13
2023-04-02T00:15:30.159Z,25.14
2023-04-02T00:20:29.410Z,25.35
2023-04-02T00:25:29.651Z,26.46
2023-04-02T00:30:27.891Z,26.48
2023-04-02T00:35:27.156Z,27.10
2023-04-02T00:40:26.424Z,27.52
2023-04-02T00:45:26.702Z,28.05
2023-04-02T00:50:24.985Z,29.20
2023-04-02T00:55:24.290Z,29.71
2023-04-02T01:00:23.535Z,29.81
2023-04-02T01:05:22.819Z,31.79
2023-04-02T01:10:22.020Z,33.54
2023-04-02T01:15:22.139Z,32.82
2023-04-02T01:20:20.390Z,32.71
2023-04-02T01:25:20.684Z,33.01
2023-04-02T01:30:18.938Z,32.79
2023-04-02T01:35:19.229Z,32.71
2023-04-02T01:40:18.473Z,33.94
2023-04-02T01:45:16.737Z,33.94
2023-04-02T01:50:17.984Z,33.74
2023-04-02T01:55:15.266Z,34.67
2023-04-02T02:00:15.540Z,35.19
2023-04-02T02:05:13.834Z,35.61
2023-04-02T02:10:13.119Z,35.71
2023-04-02T02:15:12.397Z,36.25
2023-04-02T02:20:12.681Z,36.55
2023-04-02T02:25:12.038Z,36.57
2023-04-02T02:30:11.128Z,36.77
2023-04-02T02:35:09.389Z,37.29
2023-04-02T02:40:09.675Z,37.49
2023-04-02T02:45:06.950Z,37.71
2023-04-02T02:50:08.270Z,38.33
2023-04-02T02:55:06.549Z,39.58
2023-04-02T03:00:05.861Z,38.85
2023-04-02T03:05:05.146Z,38.85
2023-04-02T03:10:04.443Z,37.91
2023-04-02T03:15:03.765Z,38.85
2023-04-02T03:20:03.051Z,39.07
2023-04-02T03:25:03.372Z,39.07
2023-04-02T03:30:01.616Z,38.87
2023-04-02T03:35:01.901Z,38.65
2023-04-02T03:40:00.208Z,38.97
2023-04-02T03:44:59.361Z,39.90
2023-04-02T03:49:58.621Z,39.39
2023-04-02T03:54:58.136Z,39.70
2023-04-02T03:59:58.184Z,40.00
2023-04-02T04:04:56.479Z,40.42
2023-04-02T04:09:55.761Z,40.42
2023-04-02T04:14:55.063Z,40.12
2023-04-02T04:19:55.418Z,41.27
2023-04-02T04:24:53.515Z,41.27
2023-04-02T04:29:52.841Z,40.84
2023-04-02T04:34:52.143Z,40.94
2023-04-02T04:39:51.465Z,40.22
2023-04-02T04:44:50.783Z,40.74
2023-04-02T04:49:51.065Z,40.84
2023-04-02T04:54:49.369Z,40.84
2023-04-02T04:59:48.644Z,40.64
2023-04-02T05:04:47.972Z,40.64
2023-04-02T05:09:49.245Z,40.54
2023-04-02T05:14:46.518Z,40.64
2023-04-02T05:19:46.783Z,41.05
2023-04-02T05:24:45.044Z,41.89
2023-04-02T05:29:44.331Z,42.19
2023-04-02T05:34:43.683Z,41.69
2023-04-02T05:39:42.936Z,41.36
2023-04-02T05:44:42.242Z,41.99
2023-04-02T05:49:42.476Z,42.32
2023-04-02T05:54:40.738Z,41.69
2023-04-02T05:59:41.041Z,41.28
2023-04-02T06:04:38.304Z,40.76
2023-04-02T06:09:40.593Z,40.23
2023-04-02T06:14:38.854Z,40.34
2023-04-02T06:19:38.115Z,40.23
2023-04-02T06:24:38.385Z,39.94
2023-04-02T06:29:35.616Z,39.94
2023-04-02T06:34:35.874Z,40.03
2023-04-02T06:39:34.157Z,40.25
2023-04-02T06:44:34.423Z,40.46
2023-04-02T06:49:33.681Z,40.88
2023-04-02T06:54:31.949Z,43.14
2023-04-02T06:59:32.292Z,42.11
2023-04-02T07:04:31.643Z,40.66
2023-04-02T07:09:28.905Z,40.34
2023-04-02T07:14:29.224Z,40.76
2023-04-02T07:19:29.501Z,40.56
2023-04-02T07:24:28.802Z,40.54
2023-04-02T07:29:27.032Z,40.46
2023-04-02T07:34:26.306Z,40.86
2023-04-02T07:39:25.580Z,41.47
2023-04-02T07:44:24.889Z,41.16
2023-04-02T07:49:25.127Z,40.76
2023-04-02T07:54:25.406Z,40.34
2023-04-02T07:59:22.724Z,40.23
2023-04-02T08:04:23.271Z,39.94
2023-04-02T08:09:22.221Z,39.92
2023-04-02T08:14:21.487Z,39.21
2023-04-02T08:19:19.794Z,39.31
2023-04-02T08:24:19.079Z,39.41
2023-04-02T08:29:18.382Z,39.92
2023-04-02T08:34:17.631Z,38.79
2023-04-02T08:39:15.953Z,38.59
2023-04-02T08:44:17.256Z,38.47
2023-04-02T08:49:15.542Z,38.27
2023-04-02T08:54:14.822Z,38.07
2023-04-02T08:59:14.105Z,38.59
2023-04-02T09:04:13.405Z,39.29
2023-04-02T09:09:12.659Z,40.00
2023-04-02T09:14:12.970Z,39.50
2023-04-02T09:19:10.236Z,38.47
2023-04-02T09:24:10.519Z,38.37
2023-04-02T09:29:09.808Z,38.87
2023-04-02T09:34:09.102Z,38.47
2023-04-02T09:39:09.381Z,37.87
2023-04-02T09:44:08.655Z,38.08
2023-04-02T09:49:06.934Z,37.18
2023-04-02T09:54:07.209Z,37.48
2023-04-02T09:59:06.455Z,36.37
2023-04-02T10:04:05.746Z,36.87
2023-04-02T10:09:06.056Z,36.86
2023-04-02T10:14:03.315Z,35.85
2023-04-02T10:19:02.606Z,36.76
2023-04-02T10:24:02.973Z,37.88
2023-04-02T10:29:02.110Z,38.08
2023-04-02T10:34:00.400Z,38.39
2023-04-02T10:39:01.774Z,37.98
2023-04-02T10:44:03.645Z,37.48
2023-04-02T10:48:59.068Z,37.88
2023-04-02T10:53:58.413Z,37.48
2023-04-02T10:58:57.575Z,37.60
2023-04-02T11:03:58.100Z,36.87
2023-04-02T11:08:55.004Z,36.66
2023-04-02T11:13:54.342Z,36.94
2023-04-02T11:18:54.604Z,35.68
2023-04-02T11:23:51.881Z,33.69
2023-04-02T11:28:52.156Z,32.24
2023-04-02T11:33:51.608Z,30.68
2023-04-02T11:38:52.525Z,29.14
2023-04-02T11:43:50.026Z,28.60
2023-04-02T11:48:49.561Z,27.97
2023-04-02T11:53:48.418Z,27.54
2023-04-02T11:58:48.698Z,27.11
2023-04-02T12:03:46.992Z,26.68
2023-04-02T12:08:56.977Z,26.37
2023-04-02T12:13:45.605Z,26.04
2023-04-02T12:18:44.932Z,25.54
2023-04-02T12:23:44.052Z,25.32
2023-04-02T12:28:44.271Z,25.31
2023-04-02T12:33:42.572Z,25.39
2023-04-02T12:38:41.858Z,25.19
2023-04-02T12:43:42.133Z,25.08
2023-04-02T12:48:41.459Z,24.88
2023-04-02T12:53:40.742Z,24.67
2023-04-02T12:58:39.002Z,24.67
2023-04-02T13:03:39.307Z,24.67
2023-04-02T13:08:38.771Z,24.56
2023-04-02T13:13:36.985Z,24.37
2023-04-02T13:18:36.047Z,24.46
2023-04-02T13:23:38.346Z,24.35
2023-04-02T13:28:35.752Z,24.16
2023-04-02T13:33:33.816Z,23.95
2023-04-02T13:38:34.103Z,24.05
2023-04-02T13:43:32.434Z,24.05
2023-04-02T13:48:31.692Z,24.15
2023-04-02T13:53:32.037Z,24.15
2023-04-02T13:58:30.585Z,23.94
2023-04-02T14:03:29.540Z,24.15
2023-04-02T14:08:32.874Z,23.94
2023-04-02T14:13:28.180Z,24.33
2023-04-02T14:18:27.733Z,24.12
2023-04-02T14:23:27.632Z,24.12
2023-04-02T14:28:25.932Z,24.11
2023-04-02T14:33:25.218Z,24.21
2023-04-02T14:38:24.712Z,24.21
2023-04-02T14:43:24.039Z,24.30
2023-04-02T14:48:23.982Z,24.51
2023-04-02T14:53:22.577Z,24.60
2023-04-02T14:58:21.598Z,24.60
2023-04-02T15:03:21.230Z,24.60
2023-04-02T15:08:20.217Z,24.60
2023-04-02T15:13:19.340Z,24.60
2023-04-02T15:18:18.723Z,24.60
2023-04-02T15:23:18.143Z,24.80
2023-04-02T15:28:17.141Z,24.38
2023-04-02T15:33:16.228Z,23.88
2023-04-02T15:38:15.919Z,24.58
2023-04-02T15:43:16.005Z,24.38
2023-04-02T15:48:14.155Z,24.38
2023-04-02T15:53:14.113Z,22.31
2023-04-02T15:58:13.724Z,21.43
2023-04-02T16:03:11.966Z,21.15
2023-04-02T16:08:10.896Z,21.36
2023-04-02T16:13:11.199Z,21.95
2023-04-02T16:18:09.685Z,22.36
2023-04-02T16:23:08.949Z,22.25
2023-04-02T16:28:09.393Z,22.26
2023-04-02T16:33:07.571Z,22.66
2023-04-02T16:38:07.103Z,22.85
2023-04-02T16:43:05.827Z,22.46
2023-04-02T16:48:03.950Z,22.85
2023-04-02T16:53:04.357Z,22.46
2023-04-02T16:58:04.764Z,21.48
2023-04-02T17:03:03.909Z,21.68
2023-04-02T17:08:04.162Z,21.78
2023-04-02T17:13:01.321Z,22.17
2023-04-02T17:18:00.663Z,21.59
2023-04-02T17:23:05.702Z,21.58
2023-04-02T17:27:58.610Z,22.49
2023-04-02T17:32:59.025Z,22.41
2023-04-02T17:37:58.339Z,23.96
2023-04-02T17:42:56.684Z,23.95
2023-04-02T17:47:58.050Z,24.35
2023-04-02T17:52:54.980Z,24.35
2023-04-02T17:57:54.626Z,25.40
2023-04-02T18:02:54.999Z,25.57
2023-04-02T18:07:54.094Z,26.39
2023-04-02T18:12:52.330Z,25.65
2023-04-02T18:17:51.704Z,24.84
2023-04-02T18:22:50.867Z,25.05
2023-04-02T18:27:50.025Z,25.38
2023-04-02T18:32:50.173Z,25.98
2023-04-02T18:37:48.959Z,24.96
2023-04-02T18:42:48.637Z,25.14
2023-04-02T18:47:47.025Z,25.87
2023-04-02T18:52:47.191Z,26.29
2023-04-02T18:57:44.974Z,26.18
2023-04-02T19:02:44.767Z,26.59
2023-04-02T19:07:43.928Z,25.87
2023-04-02T19:12:44.265Z,26.69
2023-04-02T19:17:44.361Z,27.51
2023-04-02T19:22:41.732Z,28.53
2023-04-02T19:27:40.486Z,28.96
2023-04-02T19:32:40.178Z,28.43
2023-04-02T19:37:38.928Z,27.73
2023-04-02T19:42:47.194Z,28.46
2023-04-02T19:47:37.978Z,28.15
2023-04-02T19:52:37.176Z,27.95
2023-04-02T19:57:36.305Z,29.08
2023-04-02T20:02:36.720Z,28.87
2023-04-02T20:07:37.751Z,28.86
2023-04-02T20:12:34.002Z,29.25
2023-04-02T20:17:33.998Z,28.74
2023-04-02T20:22:36.411Z,28.43
2023-04-02T20:27:32.866Z,28.22
2023-04-02T20:32:31.871Z,27.40
2023-04-02T20:37:30.102Z,26.67
2023-04-02T20:42:31.736Z,26.45
2023-04-02T20:47:29.980Z,25.92
2023-04-02T20:52:27.937Z,25.42
2023-04-02T20:57:27.211Z,25.81
2023-04-02T21:02:28.505Z,26.03
2023-04-02T21:07:25.747Z,27.67
2023-04-02T21:12:25.024Z,28.41
2023-04-02T21:17:24.291Z,28.20
2023-04-02T21:22:25.775Z,28.32
2023-04-02T21:27:23.848Z,28.32
2023-04-02T21:32:24.204Z,29.03
2023-04-02T21:37:22.269Z,28.19
2023-04-02T21:42:20.521Z,29.03
2023-04-02T21:47:19.843Z,29.82
2023-04-02T21:52:20.073Z,31.67
2023-04-02T21:57:19.141Z,32.27
2023-04-02T22:02:17.506Z,32.06
2023-04-02T22:07:18.809Z,33.30
2023-04-02T22:12:17.113Z,32.59
2023-04-02T22:17:16.394Z,29.48
2023-04-02T22:22:17.666Z,30.72
2023-04-02T22:27:17.068Z,30.54
2023-04-02T22:32:13.157Z,31.15
2023-04-02T22:37:12.447Z,31.69
2023-04-02T22:42:11.697Z,32.12
2023-04-02T22:47:11.973Z,32.43
2023-04-02T22:52:11.247Z,33.59
2023-04-02T22:57:10.587Z,34.33
2023-04-02T23:02:09.819Z,34.11
2023-04-02T23:07:09.079Z,34.86
2023-04-02T23:12:07.339Z,35.16
2023-04-02T23:17:06.633Z,36.02
2023-04-02T23:22:06.910Z,36.55
2023-04-02T23:27:05.248Z,36.67
2023-04-02T23:32:08.341Z,36.47
2023-04-02T23:37:03.635Z,36.99
2023-04-02T23:42:03.697Z,37.08
2023-04-02T23:47:02.087Z,37.43
2023-04-02T23:52:00.207Z,37.43
2023-04-02T23:57:00.525Z,37.65
